Time;durP1;ratioP1;P1;durP2;ratioP2;P2;SDS_P1;SDS_P2;PMS_P1;PMS_P2;Temp;Humidity;BMP_temperature;BMP_pressure;BME280_temperature;BME280_humidity;BME280_pressure;Samples;Min_cycle;Max_cycle;Signal;HPM_P1;HPM_P2
2022/04/17 05:52:42;;;;;;;6.72;2.75;;;16.20;52.70;;;;;;5573696;24;20047;-71
2022/04/17 05:55:09;;;;;;;4.07;2.40;;;16.30;54.00;;;;;;4821610;29;20061;-74
2022/04/17 05:57:35;;;;;;;6.40;2.55;;;16.30;53.70;;;;;;4824095;29;20051;-71
2022/04/17 06:00:08;;;;;;;9.05;2.78;;;16.50;53.30;;;;;;4825346;29;20050;-73
2022/04/17 06:02:38;;;;;;;3.60;2.00;;;16.50;53.10;;;;;;4825570;29;20058;-72
2022/04/17 06:05:05;;;;;;;8.55;2.30;;;16.60;52.90;;;;;;4827338;29;20050;-72
2022/04/17 06:07:32;;;;;;;7.43;2.50;;;16.70;52.80;;;;;;4828611;29;20406;-78
2022/04/17 06:10:02;;;;;;;11.65;2.50;;;16.80;52.70;;;;;;4797226;29;20054;-74
2022/04/17 06:12:28;;;;;;;13.63;3.58;;;16.80;52.60;;;;;;4829047;29;20058;-75
2022/04/17 06:14:54;;;;;;;12.63;3.03;;;16.90;52.70;;;;;;4825089;29;20058;-70
2022/04/17 06:17:20;;;;;;;8.30;2.97;;;16.90;52.70;;;;;;4826283;29;20061;-72
2022/04/17 06:19:45;;;;;;;7.10;2.65;;;16.90;53.10;;;;;;4828787;29;20042;-70
2022/04/17 06:22:11;;;;;;;7.85;2.20;;;17.00;53.30;;;;;;4828892;29;20058;-70
2022/04/17 06:24:37;;;;;;;6.57;2.80;;;17.00;54.30;;;;;;4825294;29;20129;-73
2022/04/17 06:27:03;;;;;;;10.90;2.38;;;17.00;54.10;;;;;;4812768;29;20053;-73
2022/04/17 06:29:28;;;;;;;5.47;2.72;;;17.00;54.10;;;;;;4828530;29;20406;-72
2022/04/17 06:31:54;;;;;;;6.38;2.67;;;17.00;54.30;;;;;;4828690;29;20358;-71
2022/04/17 06:34:20;;;;;;;8.60;2.55;;;17.00;54.30;;;;;;4828850;29;20126;-74
2022/04/17 06:36:46;;;;;;;6.75;2.92;;;16.90;54.30;;;;;;4828256;29;20046;-76
2022/04/17 06:39:11;;;;;;;4.95;3.33;;;16.90;54.40;;;;;;4812937;29;20146;-77
2022/04/17 06:41:37;;;;;;;11.32;3.60;;;16.90;54.40;;;;;;4812541;29;20060;-75
2022/04/17 06:44:03;;;;;;;5.82;2.70;;;16.90;54.70;;;;;;4824556;29;20348;-74
2022/04/17 06:46:29;;;;;;;8.90;2.92;;;16.90;54.70;;;;;;4809465;29;20062;-73
2022/04/17 06:48:55;;;;;;;5.85;2.80;;;16.80;54.40;;;;;;4820662;29;20050;-71
2022/04/17 06:51:24;;;;;;;7.82;3.13;;;16.80;54.60;;;;;;4828306;29;20137;-73
2022/04/17 06:53:50;;;;;;;6.82;3.20;;;16.80;54.70;;;;;;4803680;29;20097;-72
2022/04/17 06:56:18;;;;;;;6.40;3.10;;;17.00;55.30;;;;;;4810090;29;20062;-72
2022/04/17 06:58:47;;;;;;;6.85;3.35;;;17.00;54.40;;;;;;4810054;29;20061;-71
2022/04/17 07:01:14;;;;;;;7.18;3.15;;;17.10;53.20;;;;;;4794418;29;20407;-71
2022/04/17 07:03:43;;;;;;;13.10;3.25;;;17.20;53.50;;;;;;4809872;29;20070;-71
2022/04/17 07:06:09;;;;;;;6.28;4.00;;;17.20;53.50;;;;;;4803686;29;20058;-72
2022/04/17 07:08:35;;;;;;;4.72;3.40;;;17.30;53.00;;;;;;4809663;29;20486;-72
2022/04/17 07:11:01;;;;;;;7.95;3.42;;;17.30;51.00;;;;;;4808664;29;20070;-72
2022/04/17 07:13:26;;;;;;;7.50;3.50;;;17.40;50.10;;;;;;4810071;29;20055;-71
2022/04/17 07:15:52;;;;;;;12.20;4.05;;;17.50;52.00;;;;;;4809231;29;20058;-72
2022/04/17 07:18:19;;;;;;;22.08;4.43;;;17.60;53.30;;;;;;4809427;29;20057;-71
2022/04/17 07:20:45;;;;;;;12.52;4.10;;;17.60;55.00;;;;;;4810111;29;20050;-72
2022/04/17 07:23:11;;;;;;;13.55;3.70;;;17.70;54.80;;;;;;4808912;29;20116;-72
2022/04/17 07:25:37;;;;;;;11.38;3.47;;;17.80;54.70;;;;;;4809672;29;20511;-73
2022/04/17 07:28:03;;;;;;;12.25;3.70;;;17.80;54.80;;;;;;4793703;29;20046;-71
2022/04/17 07:30:32;;;;;;;10.75;3.75;;;17.80;54.80;;;;;;4809550;29;20057;-70
2022/04/17 07:33:00;;;;;;;12.80;4.20;;;17.90;55.30;;;;;;4809101;29;20466;-73
2022/04/17 07:35:27;;;;;;;8.75;3.78;;;17.90;55.30;;;;;;4809677;29;20057;-75
2022/04/17 07:37:55;;;;;;;10.25;3.72;;;17.90;55.10;;;;;;4809674;29;20060;-73
2022/04/17 07:40:31;;;;;;;9.20;3.05;;;18.00;55.40;;;;;;4786032;29;20057;-76
2022/04/17 07:42:59;;;;;;;10.27;3.65;;;17.90;55.00;;;;;;4793248;29;20055;-75
2022/04/17 07:45:26;;;;;;;10.95;3.10;;;18.00;56.10;;;;;;4809478;29;20054;-74
2022/04/17 07:47:52;;;;;;;11.60;3.50;;;18.00;56.10;;;;;;4809518;29;20119;-75
2022/04/17 07:50:23;;;;;;;7.88;3.10;;;17.90;56.20;;;;;;4809221;29;20386;-75
2022/04/17 07:52:49;;;;;;;7.15;3.40;;;17.90;56.60;;;;;;4810196;29;20059;-74
2022/04/17 07:55:16;;;;;;;9.15;3.30;;;18.00;56.90;;;;;;4826963;29;20397;-74
2022/04/17 08:00:32;;;;;;;9.85;3.20;;;18.00;56.80;;;;;;4827209;29;20474;-70
2022/04/17 08:03:20;;;;;;;9.52;3.13;;;18.00;57.20;;;;;;4826867;29;20507;-72
2022/04/17 08:05:46;;;;;;;11.68;3.38;;;18.00;57.30;;;;;;4827200;29;20058;-70
2022/04/17 08:08:11;;;;;;;8.13;3.20;;;18.00;57.20;;;;;;4826675;29;20054;-70
2022/04/17 08:10:38;;;;;;;8.20;3.60;;;17.90;56.70;;;;;;4827129;29;20051;-70
2022/04/17 08:13:04;;;;;;;7.95;3.53;;;17.90;56.80;;;;;;4827097;29;20043;-71
2022/04/17 08:15:30;;;;;;;7.90;2.83;;;18.00;56.80;;;;;;4826881;29;20110;-69
2022/04/17 08:17:56;;;;;;;12.80;3.50;;;17.90;56.50;;;;;;4827186;29;20129;-72
2022/04/17 08:20:22;;;;;;;10.15;2.83;;;18.00;56.20;;;;;;4795658;29;20077;-69
2022/04/17 08:22:48;;;;;;;4.88;2.78;;;18.00;56.00;;;;;;4811263;29;20118;-71
2022/04/17 08:25:14;;;;;;;12.48;3.10;;;18.00;56.10;;;;;;4811053;29;20054;-74
2022/04/17 08:27:46;;;;;;;10.13;2.80;;;18.00;56.30;;;;;;4802785;29;20046;-70
2022/04/17 08:30:12;;;;;;;15.38;3.60;;;18.10;56.40;;;;;;4826685;29;20058;-76
2022/04/17 08:32:37;;;;;;;15.18;3.78;;;18.10;56.00;;;;;;4818930;29;20520;-71
2022/04/17 08:35:05;;;;;;;10.23;3.80;;;18.10;53.90;;;;;;4826855;29;20129;-73
2022/04/17 08:37:31;;;;;;;18.05;4.35;;;18.10;53.70;;;;;;4826510;29;20125;-73
2022/04/17 08:39:56;;;;;;;13.40;3.15;;;18.10;53.40;;;;;;4825728;29;20472;-73
2022/04/17 08:42:24;;;;;;;11.00;2.83;;;18.10;53.60;;;;;;4809558;29;20051;-79
2022/04/17 08:44:53;;;;;;;13.38;3.30;;;18.00;53.60;;;;;;4810366;29;20038;-74
2022/04/17 08:47:19;;;;;;;10.93;3.30;;;18.10;53.70;;;;;;4825446;29;20385;-74
2022/04/17 08:49:46;;;;;;;11.10;3.08;;;18.10;54.00;;;;;;4822744;29;20054;-74
2022/04/17 08:52:15;;;;;;;9.57;3.35;;;18.10;54.10;;;;;;4821263;29;20085;-76
2022/04/17 08:54:44;;;;;;;12.60;3.38;;;18.10;54.10;;;;;;4839855;29;20069;-76
2022/04/17 08:57:11;;;;;;;7.95;2.80;;;18.10;54.10;;;;;;4828616;29;20062;-74
2022/04/17 08:59:37;;;;;;;10.70;2.88;;;18.10;54.20;;;;;;4828225;29;20363;-73
2022/04/17 09:02:08;;;;;;;11.88;3.13;;;18.20;54.20;;;;;;4844571;29;20057;-74
2022/04/17 09:04:34;;;;;;;8.35;2.75;;;18.20;54.30;;;;;;4847268;29;20057;-75
2022/04/17 09:07:00;;;;;;;9.95;3.17;;;18.20;54.40;;;;;;4828705;29;20045;-74
2022/04/17 09:09:26;;;;;;;11.65;2.20;;;18.20;54.50;;;;;;4844341;29;20064;-75
2022/04/17 09:11:55;;;;;;;7.63;2.90;;;18.30;54.60;;;;;;4844141;29;20049;-71
2022/04/17 09:14:21;;;;;;;10.05;3.20;;;18.20;54.60;;;;;;4843943;29;20050;-71
2022/04/17 09:16:50;;;;;;;11.25;4.00;;;18.30;53.20;;;;;;4827839;29;20118;-71
2022/04/17 09:19:19;;;;;;;6.45;3.80;;;18.30;51.20;;;;;;4844171;29;20053;-71
2022/04/17 09:21:45;;;;;;;6.57;3.30;;;18.20;50.70;;;;;;4844017;29;20054;-73
2022/04/17 09:24:29;;;;;;;6.03;2.90;;;18.20;50.20;;;;;;4844020;29;20124;-73
2022/04/17 09:26:58;;;;;;;8.00;2.70;;;18.20;49.90;;;;;;4844197;29;20050;-71
2022/04/17 09:29:25;;;;;;;8.60;3.30;;;18.20;50.60;;;;;;4844028;29;20050;-72
2022/04/17 09:31:58;;;;;;;5.50;2.65;;;18.20;50.90;;;;;;4827972;29;20062;-71
2022/04/17 09:34:25;;;;;;;10.20;2.88;;;18.20;51.30;;;;;;4844044;29;20485;-71
2022/04/17 09:37:00;;;;;;;6.32;2.30;;;18.20;51.50;;;;;;4844114;29;20354;-73
2022/04/17 09:39:33;;;;;;;6.40;2.67;;;18.20;51.80;;;;;;4843858;29;20050;-70
2022/04/17 09:42:02;;;;;;;12.00;3.17;;;18.30;51.90;;;;;;4843518;29;20053;-71
2022/04/17 09:44:48;;;;;;;13.65;3.15;;;18.20;52.80;;;;;;4844052;29;20305;-72
2022/04/17 09:47:20;;;;;;;7.80;2.45;;;18.20;54.60;;;;;;4843793;29;20479;-72
2022/04/17 09:49:54;;;;;;;7.28;2.15;;;18.20;53.40;;;;;;4827804;29;20054;-72
2022/04/17 09:52:22;;;;;;;5.85;2.20;;;18.30;53.00;;;;;;4836450;29;20062;-72
2022/04/17 09:54:49;;;;;;;5.00;1.98;;;18.30;52.50;;;;;;4843488;29;20061;-72
2022/04/17 09:57:31;;;;;;;8.05;2.35;;;18.30;52.10;;;;;;4827772;29;20050;-73
2022/04/17 10:00:05;;;;;;;7.90;2.15;;;18.30;51.70;;;;;;4828002;29;20079;-73
2022/04/17 10:02:32;;;;;;;4.28;2.25;;;18.30;51.60;;;;;;4843691;29;20057;-71
2022/04/17 10:04:59;;;;;;;3.90;1.95;;;18.30;51.40;;;;;;4843816;29;20076;-72
2022/04/17 10:07:27;;;;;;;4.65;1.92;;;18.30;51.40;;;;;;4843708;29;20083;-72
2022/04/17 10:09:53;;;;;;;6.10;1.92;;;18.40;51.40;;;;;;4843001;29;20420;-75
2022/04/17 10:12:20;;;;;;;5.22;1.23;;;18.40;51.30;;;;;;4827457;29;20129;-72
2022/04/17 10:14:50;;;;;;;6.28;1.80;;;18.40;51.30;;;;;;4843801;29;20136;-72
2022/04/17 10:17:21;;;;;;;4.35;1.70;;;18.40;52.00;;;;;;4843412;29;20137;-71
2022/04/17 10:19:50;;;;;;;5.90;1.90;;;18.40;51.50;;;;;;4843673;29;20042;-71
2022/04/17 10:22:21;;;;;;;3.17;1.50;;;18.50;51.60;;;;;;4827209;29;20057;-72
2022/04/17 10:24:54;;;;;;;2.72;1.70;;;18.50;51.80;;;;;;4827135;29;20147;-72
2022/04/17 10:27:39;;;;;;;5.43;1.63;;;18.40;51.80;;;;;;4843392;29;20046;-71
2022/04/17 10:30:10;;;;;;;2.95;1.67;;;18.40;52.00;;;;;;4842962;29;20470;-73
2022/04/17 10:33:08;;;;;;;3.13;1.48;;;18.40;52.00;;;;;;4827094;29;20350;-71
2022/04/17 10:35:37;;;;;;;5.88;1.67;;;18.40;52.20;;;;;;4843146;29;20089;-73
2022/04/17 10:38:24;;;;;;;3.55;1.38;;;18.40;52.30;;;;;;4827359;29;20411;-73
2022/04/17 10:40:54;;;;;;;3.20;1.35;;;18.40;52.40;;;;;;4843617;29;20120;-71
2022/04/17 10:43:21;;;;;;;4.68;1.85;;;18.40;52.60;;;;;;4826121;29;20050;-71
2022/04/17 10:46:06;;;;;;;5.72;1.50;;;18.40;52.60;;;;;;4826825;29;20069;-71
2022/04/17 10:48:50;;;;;;;6.25;2.08;;;18.40;53.90;;;;;;4826856;29;20489;-72
2022/04/17 10:51:17;;;;;;;9.25;2.25;;;18.40;53.80;;;;;;4844100;29;20068;-72
2022/04/17 10:54:07;;;;;;;6.32;1.70;;;18.40;54.20;;;;;;4827036;29;20058;-73
2022/04/17 10:56:37;;;;;;;7.85;1.85;;;18.40;55.50;;;;;;4828052;29;20054;-72
2022/04/17 10:59:16;;;;;;;4.65;1.98;;;18.40;55.40;;;;;;4828421;29;20050;-74
2022/04/17 11:01:41;;;;;;;6.82;2.35;;;18.40;56.60;;;;;;4828017;29;20051;-78
2022/04/17 11:04:30;;;;;;;15.45;2.47;;;18.40;56.30;;;;;;4827452;29;20526;-72
2022/04/17 11:07:05;;;;;;;18.85;2.92;;;18.40;56.50;;;;;;4827966;29;20462;-76
2022/04/17 11:09:33;;;;;;;8.40;3.80;;;18.50;55.50;;;;;;4827016;29;20066;-75
2022/04/17 11:12:27;;;;;;;10.32;4.13;;;18.50;52.50;;;;;;4827813;29;20046;-69
2022/04/17 11:15:02;;;;;;;9.85;4.25;;;18.50;49.40;;;;;;4827829;29;20060;-75
2022/04/17 11:17:29;;;;;;;10.43;3.72;;;18.50;48.80;;;;;;4827957;29;20459;-74
2022/04/17 11:19:56;;;;;;;9.95;3.97;;;18.60;47.70;;;;;;4826287;29;20431;-74
2022/04/17 11:22:26;;;;;;;15.07;3.40;;;18.60;47.80;;;;;;4826561;29;20051;-73
2022/04/17 11:24:58;;;;;;;9.60;3.20;;;18.60;47.50;;;;;;4826477;29;20054;-76
2022/04/17 11:27:41;;;;;;;6.65;3.55;;;18.60;46.30;;;;;;4827578;29;20492;-72
2022/04/17 11:30:27;;;;;;;9.00;3.30;;;18.70;43.40;;;;;;4826472;29;20129;-71
2022/04/17 11:32:54;;;;;;;12.95;3.05;;;18.70;44.10;;;;;;4826684;29;20058;-72
2022/04/17 11:35:25;;;;;;;9.50;2.80;;;18.70;46.10;;;;;;4827612;29;20090;-73
2022/04/17 11:37:53;;;;;;;11.90;2.75;;;18.70;48.70;;;;;;4827501;29;20501;-72
2022/04/17 11:40:21;;;;;;;7.32;2.40;;;18.60;48.60;;;;;;4827520;29;20129;-72
2022/04/17 11:42:52;;;;;;;8.57;2.10;;;18.60;48.90;;;;;;4827616;29;20057;-72
2022/04/17 11:45:25;;;;;;;10.77;2.90;;;18.60;50.20;;;;;;4827486;29;20057;-73
2022/04/17 11:47:53;;;;;;;6.00;2.05;;;18.70;50.10;;;;;;4827610;29;20059;-72
2022/04/17 11:50:27;;;;;;;7.88;1.90;;;18.70;50.60;;;;;;4822371;29;20389;-73
2022/04/17 11:52:59;;;;;;;8.23;1.90;;;18.80;51.00;;;;;;4828883;29;20052;-73
2022/04/17 11:55:30;;;;;;;7.72;2.17;;;18.80;51.30;;;;;;4822702;29;20054;-73
2022/04/17 11:57:57;;;;;;;6.40;2.15;;;18.80;52.60;;;;;;4845030;29;20090;-72
2022/04/17 12:00:23;;;;;;;5.35;1.42;;;18.80;52.00;;;;;;4845272;29;20050;-72
2022/04/17 12:02:55;;;;;;;3.33;1.27;;;18.80;52.20;;;;;;4829549;29;20481;-72
2022/04/17 12:05:21;;;;;;;6.43;1.60;;;18.90;52.50;;;;;;4845518;29;20136;-73
2022/04/17 12:08:09;;;;;;;4.32;1.20;;;18.90;52.60;;;;;;4829300;29;20564;-74
2022/04/17 12:10:38;;;;;;;8.95;1.40;;;18.90;52.80;;;;;;4842489;29;20049;-75
2022/04/17 12:13:15;;;;;;;5.28;1.25;;;18.90;52.80;;;;;;4829483;29;20054;-74
2022/04/17 12:15:41;;;;;;;8.15;2.05;;;19.00;53.10;;;;;;4823126;29;20109;-74
2022/04/17 12:18:07;;;;;;;7.80;1.27;;;19.00;53.10;;;;;;4845199;29;20045;-74
2022/04/17 12:20:33;;;;;;;4.40;1.65;;;19.00;53.20;;;;;;4837656;29;20060;-74
2022/04/17 12:22:59;;;;;;;5.93;1.40;;;19.00;52.80;;;;;;4829011;29;20092;-73
2022/04/17 12:25:26;;;;;;;3.88;1.77;;;19.00;53.00;;;;;;4828900;29;20057;-73
2022/04/17 12:27:54;;;;;;;3.90;1.27;;;19.00;53.30;;;;;;4829071;29;20046;-73
2022/04/17 12:30:22;;;;;;;6.13;1.52;;;19.00;53.40;;;;;;4828883;29;20058;-73
2022/04/17 12:32:49;;;;;;;15.30;1.98;;;19.00;53.40;;;;;;4844770;29;20061;-71
2022/04/17 12:35:23;;;;;;;9.82;2.25;;;19.00;53.60;;;;;;4845203;29;20522;-74
2022/04/17 12:37:49;;;;;;;9.50;1.77;;;19.00;51.80;;;;;;4844987;29;20519;-74
2022/04/17 12:40:20;;;;;;;8.20;1.77;;;19.00;50.90;;;;;;4829101;29;20053;-74
2022/04/17 12:42:48;;;;;;;8.20;1.98;;;19.00;50.20;;;;;;4844039;29;20056;-74
2022/04/17 12:45:25;;;;;;;7.97;1.80;;;19.00;50.40;;;;;;4828669;29;20062;-74
2022/04/17 12:48:07;;;;;;;4.20;1.70;;;19.00;50.50;;;;;;4829069;29;20461;-73
2022/04/17 12:50:33;;;;;;;7.15;1.38;;;19.00;50.70;;;;;;4828450;29;20381;-72
2022/04/17 12:53:01;;;;;;;8.25;2.30;;;19.00;51.20;;;;;;4813545;29;20057;-74
2022/04/17 12:55:34;;;;;;;6.90;1.95;;;18.90;51.30;;;;;;4828627;29;20133;-74
2022/04/17 12:58:01;;;;;;;10.68;1.95;;;18.90;51.70;;;;;;4838443;29;20129;-72
2022/04/17 13:00:29;;;;;;;5.47;1.63;;;18.90;52.00;;;;;;4828722;29;20110;-73
2022/04/17 13:03:14;;;;;;;5.47;1.38;;;18.90;52.30;;;;;;4828804;29;20092;-73
2022/04/17 13:05:41;;;;;;;4.18;1.63;;;18.90;52.60;;;;;;4828438;29;20153;-73
2022/04/17 13:08:10;;;;;;;2.80;1.15;;;18.90;52.80;;;;;;4844468;29;20053;-73
2022/04/17 13:10:37;;;;;;;6.03;1.02;;;18.90;53.00;;;;;;4844312;29;20150;-73
2022/04/17 13:13:04;;;;;;;6.72;1.30;;;18.80;53.10;;;;;;4844267;29;20155;-72
2022/04/17 13:15:34;;;;;;;6.55;1.00;;;18.80;52.80;;;;;;4843664;29;20061;-73
2022/04/17 13:18:01;;;;;;;5.32;1.60;;;18.80;52.50;;;;;;4836836;29;20142;-74
2022/04/17 13:20:28;;;;;;;7.40;2.40;;;18.80;52.00;;;;;;4843908;29;20393;-74
2022/04/17 13:22:55;;;;;;;4.13;1.40;;;18.80;51.60;;;;;;4824970;29;20472;-73
2022/04/17 13:25:22;;;;;;;6.78;1.55;;;18.80;52.20;;;;;;4828109;29;20179;-73
2022/04/17 13:27:49;;;;;;;7.45;1.33;;;18.80;52.70;;;;;;4843753;29;20492;-74
2022/04/17 13:30:17;;;;;;;4.63;1.35;;;18.80;53.30;;;;;;4827485;29;20130;-74
2022/04/17 13:32:43;;;;;;;8.60;2.05;;;18.70;53.00;;;;;;4844103;29;20122;-72
2022/04/17 13:35:10;;;;;;;5.53;1.63;;;18.70;51.80;;;;;;4836701;29;20062;-71
2022/04/17 13:40:21;;;;;;;9.18;1.90;;;18.70;51.60;;;;;;4828000;29;20454;-74
2022/04/17 13:42:47;;;;;;;7.15;1.67;;;18.70;51.90;;;;;;4843861;29;20077;-72
2022/04/17 13:45:13;;;;;;;4.30;1.80;;;18.70;51.70;;;;;;4827920;29;20474;-73
2022/04/17 13:47:40;;;;;;;4.55;1.38;;;18.60;51.30;;;;;;4841313;29;20085;-74
2022/04/17 13:50:08;;;;;;;6.75;1.80;;;18.70;51.60;;;;;;4836633;29;20359;-73
2022/04/17 13:52:34;;;;;;;4.95;1.65;;;18.70;51.20;;;;;;4843966;29;20049;-73
2022/04/17 13:55:00;;;;;;;4.70;1.25;;;18.60;50.90;;;;;;4843522;29;20062;-74
2022/04/17 13:57:26;;;;;;;4.18;0.98;;;18.60;50.70;;;;;;4843748;29;20061;-73
2022/04/17 13:59:52;;;;;;;4.47;1.58;;;18.60;51.20;;;;;;4843883;29;20169;-72
2022/04/17 14:02:18;;;;;;;4.13;1.45;;;18.60;51.40;;;;;;4843615;29;20454;-73
2022/04/17 14:04:44;;;;;;;2.55;1.17;;;18.60;51.60;;;;;;4827724;29;20054;-74
2022/04/17 14:07:11;;;;;;;5.25;1.50;;;18.60;51.70;;;;;;4827668;29;20128;-73
2022/04/17 14:09:38;;;;;;;4.97;1.63;;;18.60;51.90;;;;;;4827589;29;20046;-73
2022/04/17 14:12:10;;;;;;;1.80;0.95;;;18.60;51.80;;;;;;4843484;29;20048;-72
2022/04/17 14:14:37;;;;;;;3.85;1.40;;;18.60;52.00;;;;;;4843980;29;20406;-74
2022/04/17 14:17:03;;;;;;;3.83;1.10;;;18.60;52.00;;;;;;4827722;29;20050;-73
2022/04/17 14:19:29;;;;;;;3.63;1.23;;;18.60;52.30;;;;;;4843035;29;20530;-73
2022/04/17 14:21:55;;;;;;;3.83;0.93;;;18.60;52.30;;;;;;4843965;29;20128;-73
2022/04/17 14:24:21;;;;;;;2.50;1.00;;;18.60;52.60;;;;;;4827186;29;20141;-77
2022/04/17 14:26:46;;;;;;;3.15;1.10;;;18.60;52.70;;;;;;4846928;29;20128;-73
2022/04/17 14:29:12;;;;;;;4.20;1.08;;;18.70;52.90;;;;;;4830591;29;20495;-73
2022/04/17 14:31:38;;;;;;;5.00;1.10;;;18.70;52.90;;;;;;4847274;29;20042;-75
2022/04/17 14:34:03;;;;;;;5.68;1.20;;;18.70;52.70;;;;;;4845763;29;20050;-73
2022/04/17 14:36:30;;;;;;;2.85;1.15;;;18.70;52.60;;;;;;4829145;29;20056;-70
2022/04/17 14:38:56;;;;;;;3.83;1.48;;;18.70;52.30;;;;;;4831197;29;20080;-72
2022/04/17 14:41:22;;;;;;;6.15;1.67;;;18.80;51.80;;;;;;4846855;29;20054;-74
2022/04/17 14:43:48;;;;;;;4.07;1.60;;;18.80;52.00;;;;;;4846943;29;20046;-73
2022/04/17 14:46:15;;;;;;;4.78;1.90;;;18.80;51.10;;;;;;4830604;29;20069;-73
2022/04/17 14:48:41;;;;;;;6.25;2.08;;;18.70;50.30;;;;;;4846708;29;20105;-70
2022/04/17 14:51:07;;;;;;;6.28;2.00;;;18.80;49.80;;;;;;4830666;29;20050;-71
2022/04/17 14:53:35;;;;;;;4.68;2.60;;;18.70;49.80;;;;;;4830032;29;20507;-72
2022/04/17 14:56:02;;;;;;;2.60;2.33;;;18.80;50.40;;;;;;4846758;29;20054;-74
2022/04/17 14:58:28;;;;;;;6.55;2.30;;;18.70;52.20;;;;;;4846860;29;20072;-72
2022/04/17 15:00:54;;;;;;;6.55;2.00;;;18.80;51.70;;;;;;4846302;29;20046;-74
2022/04/17 15:03:21;;;;;;;6.40;1.48;;;18.70;52.20;;;;;;4830235;29;20186;-73
2022/04/17 15:05:47;;;;;;;4.38;1.50;;;18.70;52.90;;;;;;4830208;29;20054;-73
2022/04/17 15:08:12;;;;;;;4.05;1.35;;;18.70;53.40;;;;;;4846632;29;20389;-74
2022/04/17 15:10:38;;;;;;;5.68;1.60;;;18.70;53.60;;;;;;4846399;29;20058;-73
2022/04/17 15:13:09;;;;;;;5.30;1.98;;;18.70;53.80;;;;;;4830542;29;20057;-74
2022/04/17 15:15:36;;;;;;;4.45;1.60;;;18.70;54.00;;;;;;4845991;29;20053;-73
2022/04/17 15:18:02;;;;;;;4.35;1.60;;;18.70;54.10;;;;;;4846195;29;20050;-74
2022/04/17 15:20:28;;;;;;;4.90;1.85;;;18.80;53.50;;;;;;4830110;29;20443;-72
2022/04/17 15:22:54;;;;;;;5.13;2.20;;;18.80;51.90;;;;;;4830586;29;20106;-72
2022/04/17 15:25:20;;;;;;;3.95;2.00;;;18.80;50.70;;;;;;4846214;29;20054;-73
2022/04/17 15:27:49;;;;;;;4.25;2.47;;;18.90;49.20;;;;;;4845728;29;20045;-71
2022/04/17 15:30:15;;;;;;;4.55;2.28;;;18.90;47.80;;;;;;4856638;29;20049;-73
2022/04/17 15:32:43;;;;;;;3.60;1.77;;;19.00;47.30;;;;;;4851283;29;20455;-75
2022/04/17 15:35:12;;;;;;;5.60;2.00;;;18.90;46.70;;;;;;4829842;29;20046;-72
2022/04/17 15:37:38;;;;;;;4.63;2.03;;;18.90;46.90;;;;;;4845558;29;20125;-72
2022/04/17 15:40:05;;;;;;;4.03;2.00;;;18.90;47.80;;;;;;4829630;29;20128;-72
2022/04/17 15:42:32;;;;;;;6.82;2.13;;;18.90;48.30;;;;;;4846133;29;20090;-71
2022/04/17 15:48:06;;;;;;;5.80;2.00;;;18.80;48.70;;;;;;4845769;29;20054;-71
2022/04/17 15:50:32;;;;;;;4.95;2.30;;;18.90;47.70;;;;;;4845626;29;20046;-73
2022/04/17 15:53:04;;;;;;;6.95;2.53;;;18.90;46.60;;;;;;4829532;29;20052;-71
2022/04/17 15:55:39;;;;;;;3.58;2.38;;;19.00;45.60;;;;;;4829298;29;20062;-74
2022/04/17 15:58:06;;;;;;;6.57;2.08;;;19.00;45.60;;;;;;4845669;29;20050;-71
2022/04/17 16:00:31;;;;;;;8.70;2.40;;;19.00;46.30;;;;;;4844708;29;20077;-71
2022/04/17 16:02:57;;;;;;;6.00;2.17;;;19.00;46.20;;;;;;4845504;29;20049;-71
2022/04/17 16:05:23;;;;;;;3.78;2.38;;;19.10;45.20;;;;;;4845385;29;20461;-71
2022/04/17 16:07:49;;;;;;;3.80;2.38;;;19.10;43.80;;;;;;4845618;29;20049;-73
2022/04/17 16:10:16;;;;;;;9.00;2.80;;;19.10;43.10;;;;;;4829103;29;20145;-73
2022/04/17 16:12:42;;;;;;;7.50;2.40;;;19.10;43.50;;;;;;4845256;29;20053;-71
2022/04/17 16:15:09;;;;;;;5.43;2.17;;;19.10;43.10;;;;;;4829576;29;20378;-72
2022/04/17 16:17:35;;;;;;;2.53;1.90;;;19.10;43.80;;;;;;4844862;29;20515;-72
2022/04/17 16:20:01;;;;;;;4.35;1.88;;;19.00;44.30;;;;;;4829450;29;20480;-71
2022/04/17 16:22:28;;;;;;;10.20;2.17;;;18.90;44.90;;;;;;4844792;29;20057;-73
2022/04/17 16:24:54;;;;;;;2.72;1.60;;;18.90;45.30;;;;;;4828122;29;20064;-72
2022/04/17 16:27:20;;;;;;;4.28;2.00;;;18.90;45.30;;;;;;4845109;29;20374;-72
2022/04/17 16:29:46;;;;;;;2.55;1.60;;;18.90;45.30;;;;;;4844926;29;20075;-71
2022/04/17 16:32:11;;;;;;;3.50;1.30;;;18.80;45.80;;;;;;4844751;29;20049;-71
2022/04/17 16:34:37;;;;;;;2.78;1.55;;;18.80;45.90;;;;;;4844581;29;20054;-73
2022/04/17 16:37:04;;;;;;;3.78;1.70;;;18.80;46.30;;;;;;4844930;29;20046;-71
2022/04/17 16:39:30;;;;;;;3.95;1.60;;;18.80;46.40;;;;;;4845062;29;20046;-71
2022/04/17 16:41:55;;;;;;;4.45;2.35;;;18.80;46.70;;;;;;4828687;29;20054;-68
2022/04/17 16:44:21;;;;;;;5.15;1.83;;;18.80;45.40;;;;;;4845090;29;20100;-70
2022/04/17 16:46:47;;;;;;;8.80;2.83;;;18.80;46.50;;;;;;4844515;29;20053;-69
2022/04/17 16:49:13;;;;;;;8.25;1.92;;;18.80;47.40;;;;;;4844000;29;20053;-71
2022/04/17 16:51:38;;;;;;;8.23;2.35;;;18.90;47.20;;;;;;4844650;29;20045;-71
2022/04/17 16:54:04;;;;;;;8.43;1.98;;;18.80;47.50;;;;;;4844909;29;20074;-69
2022/04/17 16:56:30;;;;;;;11.35;2.10;;;18.90;47.90;;;;;;4828656;29;20088;-71
2022/04/17 16:59:14;;;;;;;12.80;2.15;;;18.90;48.30;;;;;;4828332;29;20085;-70
2022/04/17 17:01:44;;;;;;;10.70;2.05;;;18.90;48.50;;;;;;4828603;29;20068;-71
2022/04/17 17:04:11;;;;;;;11.07;1.70;;;18.90;49.10;;;;;;4844759;29;20065;-73
2022/04/17 17:06:37;;;;;;;6.15;1.80;;;18.90;49.70;;;;;;4813204;29;20053;-73
2022/04/17 17:09:05;;;;;;;6.70;1.60;;;18.90;50.30;;;;;;4843910;29;20054;-72
2022/04/17 17:11:31;;;;;;;12.60;1.95;;;18.90;50.40;;;;;;4844707;29;20053;-72
2022/04/17 17:13:57;;;;;;;3.88;1.30;;;18.90;50.70;;;;;;4844351;29;20117;-71
2022/04/17 17:16:23;;;;;;;10.32;1.83;;;18.90;51.10;;;;;;4844333;29;20050;-72
2022/04/17 17:18:49;;;;;;;4.85;1.27;;;18.90;51.10;;;;;;4844437;29;20056;-72
2022/04/17 17:21:14;;;;;;;4.28;1.40;;;18.90;51.80;;;;;;4844084;29;20053;-72
2022/04/17 17:23:40;;;;;;;9.27;1.77;;;18.90;52.30;;;;;;4828389;29;20049;-72
2022/04/17 17:26:06;;;;;;;3.55;1.00;;;18.90;52.60;;;;;;4844111;29;20057;-71
2022/04/17 17:28:32;;;;;;;5.22;1.67;;;18.80;52.70;;;;;;4844375;29;20053;-71
2022/04/17 17:30:59;;;;;;;7.35;1.40;;;18.80;52.80;;;;;;4843961;29;20056;-72
2022/04/17 17:33:26;;;;;;;4.18;1.15;;;18.80;52.90;;;;;;4844489;29;20074;-73
2022/04/17 17:35:53;;;;;;;3.58;1.30;;;18.80;53.10;;;;;;4843914;29;20060;-72
2022/04/17 17:38:19;;;;;;;6.53;1.25;;;18.80;53.20;;;;;;4843741;29;20436;-73
2022/04/17 17:40:45;;;;;;;5.20;1.10;;;18.70;53.30;;;;;;4827933;29;20129;-72
2022/04/17 17:43:11;;;;;;;4.85;1.38;;;18.70;53.40;;;;;;4843883;29;20089;-72
2022/04/17 17:45:37;;;;;;;3.72;1.10;;;18.70;53.60;;;;;;4844282;29;20365;-72
2022/04/17 17:48:04;;;;;;;4.43;1.20;;;18.70;53.90;;;;;;4827620;29;20403;-72
2022/04/17 17:50:31;;;;;;;6.55;1.33;;;18.70;54.20;;;;;;4843776;29;20061;-71
2022/04/17 17:52:56;;;;;;;3.03;0.80;;;18.70;54.40;;;;;;4812403;29;20050;-73
2022/04/17 17:55:22;;;;;;;3.53;1.00;;;18.70;54.60;;;;;;4843100;29;20087;-72
2022/04/17 17:57:49;;;;;;;3.92;1.35;;;18.70;54.60;;;;;;4827521;29;20077;-73
2022/04/17 18:00:16;;;;;;;5.60;1.27;;;18.70;54.00;;;;;;4841969;29;20083;-72
2022/04/17 18:02:42;;;;;;;3.85;2.20;;;18.70;53.00;;;;;;4838575;29;20060;-71
2022/04/17 18:05:08;;;;;;;5.07;2.83;;;18.70;46.30;;;;;;4843403;29;20412;-71
2022/04/17 18:15:50;;;;;;;6.68;2.10;;;18.40;44.80;;;;;;4844069;29;20061;-73
2022/04/17 18:18:16;;;;;;;4.13;2.20;;;18.50;47.30;;;;;;4843751;29;20058;-71
2022/04/17 18:20:43;;;;;;;3.80;1.83;;;18.50;47.40;;;;;;4843523;29;20049;-71
2022/04/17 18:23:13;;;;;;;4.15;1.83;;;18.50;48.50;;;;;;4827524;29;20049;-72
2022/04/17 18:25:40;;;;;;;5.20;1.73;;;18.60;48.70;;;;;;4843227;29;20053;-74
2022/04/17 18:28:06;;;;;;;4.32;2.03;;;18.60;49.20;;;;;;4843347;29;20054;-73
2022/04/17 18:30:32;;;;;;;3.72;2.08;;;18.60;49.80;;;;;;4843623;29;20085;-71
2022/04/17 18:32:59;;;;;;;4.32;2.10;;;18.60;50.00;;;;;;4843097;29;20090;-72
2022/04/17 18:35:24;;;;;;;4.10;2.00;;;18.50;49.70;;;;;;4843335;29;20120;-72
2022/04/17 18:37:50;;;;;;;2.97;1.50;;;18.60;49.90;;;;;;4809466;29;20497;-72
2022/04/17 18:40:16;;;;;;;4.30;2.00;;;18.60;49.70;;;;;;4843344;29;20046;-72
2022/04/17 18:42:42;;;;;;;3.38;1.77;;;18.60;49.70;;;;;;4843224;29;20074;-72
2022/04/17 18:45:08;;;;;;;4.00;1.85;;;18.50;49.50;;;;;;4827171;29;20042;-72
2022/04/17 18:47:34;;;;;;;6.72;2.45;;;18.50;49.50;;;;;;4842966;29;20085;-71
2022/04/17 18:49:59;;;;;;;2.55;1.45;;;18.50;49.60;;;;;;4826965;29;20061;-71
2022/04/17 18:52:25;;;;;;;2.58;1.75;;;18.50;49.20;;;;;;4843344;29;20500;-73
2022/04/17 18:54:51;;;;;;;3.33;1.95;;;18.50;49.10;;;;;;4842758;29;20089;-71
2022/04/17 18:57:17;;;;;;;4.50;1.92;;;18.50;49.00;;;;;;4843640;29;20050;-73
2022/04/17 18:59:43;;;;;;;3.35;1.65;;;18.60;49.00;;;;;;4843020;29;20065;-71